createdAt,value
2023-09-16T00:00:07.843Z,3.23
2023-09-16T00:01:03.927Z,3.07
2023-09-16T00:05:06.033Z,3.23
2023-09-16T00:05:40.342Z,3.20
2023-09-16T00:06:14.113Z,3.23
2023-09-16T00:06:47.467Z,3.17
2023-09-16T00:07:22.600Z,3.37
2023-09-16T00:07:55.886Z,3.00
2023-09-16T00:08:29.354Z,2.90
2023-09-16T00:09:02.807Z,2.93
2023-09-16T00:09:36.702Z,3.30
2023-09-16T00:10:10.325Z,3.37
2023-09-16T00:10:43.616Z,3.43
2023-09-16T00:11:17.098Z,3.50
2023-09-16T00:11:50.788Z,3.57
2023-09-16T00:12:28.535Z,3.50
2023-09-16T00:13:02.206Z,3.53
2023-09-16T00:13:36.981Z,3.73
2023-09-16T00:14:13.456Z,3.70
2023-09-16T00:14:46.968Z,3.63
2023-09-16T00:15:23.630Z,3.37
2023-09-16T00:15:58.379Z,3.23
2023-09-16T00:16:31.933Z,3.27
2023-09-16T00:17:05.500Z,2.93
2023-09-16T00:17:38.963Z,3.17
2023-09-16T00:18:15.341Z,3.67
2023-09-16T00:18:48.892Z,3.17
2023-09-16T00:19:24.984Z,3.43
2023-09-16T00:20:00.097Z,2.90
2023-09-16T00:20:33.586Z,3.27
2023-09-16T00:21:06.994Z,3.67
2023-09-16T00:21:42.881Z,3.37
2023-09-16T00:22:17.200Z,3.17
2023-09-16T00:22:52.398Z,3.10
2023-09-16T00:23:25.964Z,3.27
2023-09-16T00:24:02.058Z,3.10
2023-09-16T00:24:35.782Z,3.33
2023-09-16T00:25:10.126Z,3.30
2023-09-16T00:25:43.676Z,3.37
2023-09-16T00:26:17.218Z,2.90
2023-09-16T00:26:54.986Z,3.00
2023-09-16T00:27:28.343Z,3.47
2023-09-16T00:28:02.004Z,3.17
2023-09-16T00:28:37.143Z,3.63
2023-09-16T00:29:13.588Z,3.63
2023-09-16T00:29:47.093Z,3.23
2023-09-16T00:30:20.995Z,3.47
2023-09-16T00:30:54.454Z,2.97
2023-09-16T00:31:28.657Z,3.33
2023-09-16T00:32:05.909Z,3.30
2023-09-16T00:32:40.853Z,3.73
2023-09-16T00:33:14.704Z,3.70
2023-09-16T00:33:50.636Z,3.67
2023-09-16T00:34:24.207Z,3.53
2023-09-16T00:34:58.022Z,3.33
2023-09-16T00:35:31.587Z,3.10
2023-09-16T00:36:05.445Z,3.23
2023-09-16T00:36:39.147Z,3.37
2023-09-16T00:37:13.349Z,3.43
2023-09-16T00:37:48.141Z,3.43
2023-09-16T00:38:22.197Z,3.17
2023-09-16T00:38:55.694Z,3.53
2023-09-16T00:39:29.184Z,3.70
2023-09-16T00:40:03.262Z,3.57
2023-09-16T00:40:38.519Z,3.50
2023-09-16T00:41:13.711Z,3.20
2023-09-16T00:41:47.145Z,3.47
2023-09-16T00:42:20.744Z,3.40
2023-09-16T00:42:54.229Z,3.53
2023-09-16T00:43:27.610Z,3.50
2023-09-16T00:44:00.784Z,3.20
2023-09-16T00:44:34.353Z,3.40
2023-09-16T00:45:12.124Z,3.17
2023-09-16T00:45:45.869Z,3.77
2023-09-16T00:46:20.823Z,3.53
2023-09-16T00:46:54.113Z,3.30
2023-09-16T00:47:27.775Z,3.43
2023-09-16T00:48:02.001Z,3.30
2023-09-16T00:48:40.764Z,3.70
2023-09-16T00:49:14.914Z,3.27
2023-09-16T00:49:48.264Z,3.47
2023-09-16T00:50:24.079Z,3.43
2023-09-16T00:50:57.904Z,3.43
2023-09-16T00:51:34.839Z,3.63
2023-09-16T00:52:09.154Z,3.60
2023-09-16T00:52:55.340Z,4.20
2023-09-16T00:53:28.895Z,4.20
2023-09-16T00:54:03.732Z,4.37
2023-09-16T00:54:37.618Z,4.57
2023-09-16T00:55:11.121Z,4.27
2023-09-16T00:55:48.858Z,3.93
2023-09-16T00:56:23.190Z,3.93
2023-09-16T00:56:59.303Z,3.93
2023-09-16T00:57:33.540Z,3.57
2023-09-16T00:58:12.507Z,3.53
2023-09-16T00:58:47.293Z,3.60
2023-09-16T00:59:23.614Z,3.83
2023-09-16T00:59:57.144Z,3.80
2023-09-16T01:00:33.886Z,3.40
2023-09-16T01:01:11.081Z,3.40
2023-09-16T01:01:50.855Z,3.87
2023-09-16T01:02:25.123Z,3.80
2023-09-16T01:03:01.984Z,3.90
2023-09-16T01:03:38.977Z,4.17
2023-09-16T01:04:13.002Z,3.17
2023-09-16T01:04:47.446Z,3.53
2023-09-16T01:05:24.353Z,3.50
2023-09-16T01:06:01.153Z,3.70
2023-09-16T01:06:38.230Z,3.37
2023-09-16T01:07:12.763Z,3.87
2023-09-16T01:07:47.368Z,3.97
2023-09-16T01:08:21.108Z,3.73
2023-09-16T01:08:55.459Z,3.70
2023-09-16T01:09:29.053Z,3.43
2023-09-16T01:10:02.771Z,3.23
2023-09-16T01:10:38.405Z,3.50
2023-09-16T01:11:12.765Z,3.27
2023-09-16T01:11:48.982Z,3.00
2023-09-16T01:12:23.056Z,3.63
2023-09-16T01:12:58.345Z,3.30
2023-09-16T01:13:35.547Z,3.27
2023-09-16T01:14:12.290Z,3.13
2023-09-16T01:14:45.810Z,3.63
2023-09-16T01:15:21.560Z,3.80
2023-09-16T01:16:12.974Z,3.43
2023-09-16T01:17:04.199Z,4.00
2023-09-16T01:18:02.243Z,3.50
2023-09-16T01:18:49.780Z,3.63
2023-09-16T01:20:00.411Z,3.47
2023-09-16T01:20:35.194Z,3.93
2023-09-16T01:21:10.122Z,3.50
2023-09-16T01:21:44.669Z,3.73
2023-09-16T01:22:18.591Z,4.13
2023-09-16T01:22:55.309Z,3.47
2023-09-16T01:23:28.949Z,3.03
2023-09-16T01:24:22.112Z,3.20
2023-09-16T01:24:57.184Z,3.33
2023-09-16T01:25:32.120Z,3.60
2023-09-16T01:26:06.086Z,3.53
2023-09-16T01:26:40.439Z,3.83
2023-09-16T01:27:13.926Z,3.60
2023-09-16T01:27:47.413Z,3.23
2023-09-16T01:28:23.693Z,3.43
2023-09-16T01:28:57.010Z,3.57
2023-09-16T01:29:31.637Z,3.47
2023-09-16T01:30:10.485Z,3.33
2023-09-16T01:30:51.612Z,3.20
2023-09-16T01:31:25.917Z,3.50
2023-09-16T01:32:07.054Z,3.27
2023-09-16T01:32:59.020Z,4.07
2023-09-16T01:33:51.989Z,3.10
2023-09-16T01:34:32.251Z,3.57
2023-09-16T01:35:07.895Z,3.27
2023-09-16T01:35:43.760Z,3.37
2023-09-16T01:36:26.789Z,3.30
2023-09-16T01:37:01.879Z,3.97
2023-09-16T01:37:36.582Z,3.63
2023-09-16T01:38:14.369Z,3.70
2023-09-16T01:38:58.184Z,3.50
2023-09-16T01:39:33.430Z,3.50
2023-09-16T01:40:11.602Z,3.43
2023-09-16T01:40:47.118Z,3.33
2023-09-16T01:41:22.059Z,3.27
2023-09-16T01:41:59.715Z,3.93
2023-09-16T01:42:33.739Z,3.77
2023-09-16T01:43:08.640Z,3.40
2023-09-16T01:43:42.195Z,3.70
2023-09-16T01:44:16.107Z,4.53
2023-09-16T01:44:54.496Z,4.77
2023-09-16T01:45:29.499Z,3.93
2023-09-16T01:46:06.306Z,3.83
2023-09-16T01:46:40.362Z,3.97
2023-09-16T01:47:13.904Z,3.20
2023-09-16T01:47:49.705Z,3.10
2023-09-16T01:48:36.486Z,3.07
2023-09-16T01:49:14.448Z,3.00
2023-09-16T01:49:48.892Z,3.10
2023-09-16T01:50:22.205Z,2.90
2023-09-16T01:50:55.738Z,3.03
2023-09-16T01:51:29.327Z,2.80
2023-09-16T01:52:04.106Z,2.77
2023-09-16T01:52:37.702Z,3.23
2023-09-16T01:53:11.821Z,2.83
2023-09-16T01:53:49.933Z,2.53
2023-09-16T01:54:23.472Z,3.03
2023-09-16T01:54:57.245Z,3.00
2023-09-16T01:55:32.026Z,3.23
2023-09-16T01:56:05.666Z,3.23
2023-09-16T01:56:38.976Z,3.10
2023-09-16T01:57:13.040Z,3.03
2023-09-16T01:57:46.728Z,2.97
2023-09-16T01:58:20.321Z,3.37
2023-09-16T01:58:53.862Z,2.77
2023-09-16T01:59:27.421Z,3.27
2023-09-16T02:00:01.052Z,3.53
2023-09-16T02:00:37.578Z,4.03
2023-09-16T02:01:12.557Z,4.03
2023-09-16T02:01:47.841Z,3.40
2023-09-16T02:02:21.233Z,3.20
2023-09-16T02:02:54.809Z,3.70
2023-09-16T02:03:29.684Z,3.73
2023-09-16T02:04:03.059Z,3.33
2023-09-16T02:04:40.028Z,3.10
2023-09-16T02:05:14.396Z,3.10
2023-09-16T02:05:48.458Z,3.63
2023-09-16T02:06:22.567Z,3.10
2023-09-16T02:06:56.468Z,2.80
2023-09-16T02:07:29.880Z,3.47
2023-09-16T02:08:03.784Z,2.90
2023-09-16T02:08:37.169Z,2.83
2023-09-16T02:09:10.633Z,2.97
2023-09-16T02:09:45.835Z,3.47
2023-09-16T02:10:19.161Z,3.03
2023-09-16T02:10:52.536Z,2.80
2023-09-16T02:11:25.872Z,2.83
2023-09-16T02:11:59.191Z,2.50
2023-09-16T02:12:34.452Z,3.30
2023-09-16T02:13:11.663Z,2.87
2023-09-16T02:13:44.911Z,3.00
2023-09-16T02:14:20.432Z,2.77
2023-09-16T02:14:54.880Z,2.90
2023-09-16T02:15:28.160Z,2.97
2023-09-16T02:16:02.029Z,2.93
2023-09-16T02:16:38.405Z,3.03
2023-09-16T02:17:12.335Z,3.10
2023-09-16T02:17:47.381Z,2.90
2023-09-16T02:18:21.894Z,3.13
2023-09-16T02:18:56.191Z,2.60
2023-09-16T02:19:30.502Z,2.83
2023-09-16T02:20:04.413Z,2.90
2023-09-16T02:20:38.069Z,2.50
2023-09-16T02:21:12.377Z,2.53
2023-09-16T02:21:48.738Z,3.00
2023-09-16T02:22:22.618Z,3.27
2023-09-16T02:22:56.453Z,2.70
2023-09-16T02:23:30.641Z,3.17
2023-09-16T02:24:04.759Z,2.63
2023-09-16T02:24:38.382Z,2.83
2023-09-16T02:25:12.028Z,2.77
2023-09-16T02:25:45.648Z,2.70
2023-09-16T02:26:19.141Z,2.80
2023-09-16T02:26:55.254Z,2.97
2023-09-16T02:27:31.826Z,2.33
2023-09-16T02:28:05.804Z,2.50
2023-09-16T02:28:40.665Z,2.87
2023-09-16T02:29:14.144Z,3.13
2023-09-16T02:29:49.353Z,2.77
2023-09-16T02:30:24.043Z,2.43
2023-09-16T02:30:58.017Z,2.53
2023-09-16T02:31:31.433Z,2.60
2023-09-16T02:32:05.109Z,2.70
2023-09-16T02:32:38.702Z,2.90
2023-09-16T02:33:12.097Z,2.77
2023-09-16T02:33:45.576Z,2.40
2023-09-16T02:34:19.107Z,2.73
2023-09-16T02:34:55.400Z,2.90
2023-09-16T02:35:30.801Z,3.07
2023-09-16T02:36:06.882Z,2.53
2023-09-16T02:36:44.334Z,2.53
2023-09-16T02:37:21.638Z,2.53
2023-09-16T02:37:55.161Z,2.80
2023-09-16T02:38:28.896Z,2.67
2023-09-16T02:39:02.383Z,2.57
2023-09-16T02:39:36.713Z,2.60
2023-09-16T02:40:10.375Z,2.97
2023-09-16T02:40:44.790Z,2.77
2023-09-16T02:41:20.243Z,3.03
2023-09-16T02:41:54.823Z,3.03
2023-09-16T02:42:28.357Z,2.77
2023-09-16T02:43:01.893Z,2.87
2023-09-16T02:43:36.374Z,3.43
2023-09-16T02:44:09.974Z,3.13
2023-09-16T02:44:43.722Z,2.90
2023-09-16T02:45:17.364Z,3.13
2023-09-16T02:45:51.955Z,2.90
2023-09-16T02:46:26.584Z,3.10
2023-09-16T02:47:02.159Z,3.57
2023-09-16T02:47:35.728Z,3.10
2023-09-16T02:48:10.416Z,3.43
2023-09-16T02:48:44.865Z,3.23
2023-09-16T02:49:21.391Z,3.37
2023-09-16T02:49:54.899Z,3.10
2023-09-16T02:50:30.911Z,3.50
2023-09-16T02:51:04.420Z,3.53
2023-09-16T02:51:37.769Z,3.37
2023-09-16T02:52:11.114Z,2.67
2023-09-16T02:52:45.256Z,3.27
2023-09-16T02:53:21.680Z,3.27
2023-09-16T02:53:56.267Z,3.40
2023-09-16T02:54:29.493Z,3.10
2023-09-16T02:55:03.973Z,3.00
2023-09-16T02:55:37.532Z,3.57
2023-09-16T02:56:11.022Z,3.43
2023-09-16T02:56:45.541Z,3.40
2023-09-16T02:57:19.529Z,3.33
2023-09-16T02:57:53.038Z,3.10
2023-09-16T02:58:26.337Z,3.30
2023-09-16T02:58:59.868Z,3.57
2023-09-16T02:59:33.743Z,3.53
2023-09-16T03:00:08.662Z,2.97
2023-09-16T03:00:45.794Z,2.90
2023-09-16T03:01:19.432Z,2.70
2023-09-16T03:01:53.354Z,3.30
2023-09-16T03:02:27.330Z,2.93
2023-09-16T03:03:01.363Z,2.83
2023-09-16T03:03:35.031Z,3.17
2023-09-16T03:04:08.646Z,3.53
2023-09-16T03:04:42.326Z,3.07
2023-09-16T03:05:17.596Z,3.30
2023-09-16T03:05:51.161Z,2.93
2023-09-16T03:06:24.546Z,3.27
2023-09-16T03:06:59.288Z,3.23
2023-09-16T03:07:32.848Z,3.67
2023-09-16T03:08:06.885Z,3.33
2023-09-16T03:08:40.567Z,3.00
2023-09-16T03:09:14.136Z,2.90
2023-09-16T03:09:47.751Z,3.67
2023-09-16T03:10:21.298Z,3.10
2023-09-16T03:11:04.787Z,3.30
2023-09-16T03:11:39.862Z,2.73
2023-09-16T03:12:13.814Z,3.03
2023-09-16T03:12:48.609Z,3.63
2023-09-16T03:13:25.463Z,3.47
2023-09-16T03:13:58.849Z,3.83
2023-09-16T03:14:32.450Z,3.67
2023-09-16T03:15:06.999Z,3.03
2023-09-16T03:15:47.841Z,3.17
2023-09-16T03:16:24.675Z,3.20
2023-09-16T03:17:03.942Z,3.00
2023-09-16T03:17:40.029Z,3.27
2023-09-16T03:18:17.418Z,3.13
2023-09-16T03:18:54.253Z,3.10
2023-09-16T03:19:29.553Z,3.03
2023-09-16T03:20:03.269Z,3.37
2023-09-16T03:20:37.119Z,3.83
2023-09-16T03:21:15.260Z,3.27
2023-09-16T03:21:49.421Z,3.60
2023-09-16T03:22:23.574Z,3.80
2023-09-16T03:22:57.084Z,3.50
2023-09-16T03:23:30.652Z,3.07
2023-09-16T03:24:04.803Z,3.57
2023-09-16T03:24:38.416Z,3.63
2023-09-16T03:25:13.198Z,3.33
2023-09-16T03:25:47.168Z,3.40
2023-09-16T03:26:20.716Z,3.10
2023-09-16T03:26:56.446Z,3.43
2023-09-16T03:27:30.798Z,3.57
2023-09-16T03:28:04.597Z,3.53
2023-09-16T03:28:48.233Z,3.17
2023-09-16T03:29:23.552Z,2.53
2023-09-16T03:29:56.866Z,3.43
2023-09-16T03:30:33.349Z,3.50
2023-09-16T03:31:07.225Z,3.30
2023-09-16T03:31:40.559Z,3.50
2023-09-16T03:32:19.557Z,3.47
2023-09-16T03:32:52.983Z,3.07
2023-09-16T03:33:26.983Z,3.63
2023-09-16T03:34:00.683Z,3.40
2023-09-16T03:34:34.372Z,3.23
2023-09-16T03:35:08.149Z,3.30
2023-09-16T03:35:42.081Z,3.53
2023-09-16T03:36:15.685Z,3.83
2023-09-16T03:36:49.551Z,3.83
2023-09-16T03:37:23.192Z,3.97
2023-09-16T03:37:58.857Z,3.67
2023-09-16T03:38:36.611Z,3.93
2023-09-16T03:39:11.317Z,4.17
2023-09-16T03:39:44.675Z,3.87
2023-09-16T03:40:17.943Z,3.83
2023-09-16T03:40:52.061Z,3.27
2023-09-16T03:41:25.617Z,3.33
2023-09-16T03:42:07.443Z,4.10
2023-09-16T03:42:41.454Z,3.90
2023-09-16T03:43:15.124Z,3.47
2023-09-16T03:43:50.321Z,3.77
2023-09-16T03:44:25.012Z,3.30
2023-09-16T03:45:02.606Z,3.50
2023-09-16T03:45:37.427Z,3.27
2023-09-16T03:46:11.065Z,2.93
2023-09-16T03:46:49.440Z,2.93
2023-09-16T03:47:25.962Z,3.30
2023-09-16T03:48:02.527Z,2.93
2023-09-16T03:48:36.681Z,3.43
2023-09-16T03:49:10.489Z,3.77
2023-09-16T03:49:44.008Z,3.27
2023-09-16T03:50:17.360Z,3.30
2023-09-16T03:50:51.297Z,3.50
2023-09-16T03:51:28.435Z,2.87
2023-09-16T03:52:02.403Z,3.70
2023-09-16T03:52:35.849Z,3.37
2023-09-16T03:53:11.984Z,3.90
2023-09-16T03:53:47.522Z,4.40
2023-09-16T03:54:21.595Z,3.87
2023-09-16T03:54:57.887Z,3.60
2023-09-16T03:55:31.574Z,3.43
2023-09-16T03:56:09.930Z,3.10
2023-09-16T03:56:44.145Z,3.27
2023-09-16T03:57:23.240Z,3.77
2023-09-16T03:57:57.434Z,3.17
2023-09-16T03:58:31.474Z,3.17
2023-09-16T03:59:08.280Z,3.37
2023-09-16T03:59:43.129Z,3.30
2023-09-16T04:00:17.034Z,3.00
2023-09-16T04:00:51.100Z,3.10
2023-09-16T04:01:24.799Z,3.43
2023-09-16T04:01:58.340Z,3.27
2023-09-16T04:02:31.842Z,3.33
2023-09-16T04:03:08.135Z,3.43
2023-09-16T04:03:43.687Z,3.53
2023-09-16T04:04:17.682Z,3.13
2023-09-16T04:04:51.294Z,3.37
2023-09-16T04:05:24.840Z,2.93
2023-09-16T04:06:00.210Z,2.93
2023-09-16T04:06:33.911Z,3.07
2023-09-16T04:07:07.827Z,3.27
2023-09-16T04:07:41.427Z,3.10
2023-09-16T04:08:15.293Z,3.17
2023-09-16T04:08:49.564Z,3.50
2023-09-16T04:09:23.074Z,3.03
2023-09-16T04:09:57.630Z,3.13
2023-09-16T04:10:31.170Z,2.83
2023-09-16T04:11:04.762Z,2.67
2023-09-16T04:11:38.245Z,3.03
2023-09-16T04:12:11.744Z,2.67
2023-09-16T04:12:45.215Z,3.17
2023-09-16T04:13:19.233Z,2.53
2023-09-16T04:13:55.865Z,3.03
2023-09-16T04:14:30.082Z,3.17
2023-09-16T04:15:04.484Z,3.33
2023-09-16T04:15:40.311Z,3.17
2023-09-16T04:16:16.361Z,3.27
2023-09-16T04:16:50.639Z,3.10
2023-09-16T04:17:27.736Z,2.97
2023-09-16T04:18:01.681Z,3.10
2023-09-16T04:18:35.586Z,3.13
2023-09-16T04:19:09.309Z,3.27
2023-09-16T04:19:42.815Z,3.33
2023-09-16T04:20:16.929Z,3.23
2023-09-16T04:20:51.888Z,3.17
2023-09-16T04:21:26.091Z,3.67
2023-09-16T04:21:59.718Z,3.73
2023-09-16T04:22:33.740Z,3.70
2023-09-16T04:23:10.027Z,3.27
2023-09-16T04:23:43.342Z,3.80
2023-09-16T04:24:20.079Z,3.93
2023-09-16T04:24:57.792Z,3.23
2023-09-16T04:25:31.583Z,3.77
2023-09-16T04:26:06.957Z,3.80
2023-09-16T04:26:40.472Z,3.50
2023-09-16T04:27:14.281Z,3.47
2023-09-16T04:27:47.681Z,3.50
2023-09-16T04:28:22.909Z,3.43
2023-09-16T04:28:58.224Z,3.47
2023-09-16T04:29:32.447Z,4.00
2023-09-16T04:30:07.928Z,3.73
2023-09-16T04:30:52.574Z,3.80
2023-09-16T04:31:27.536Z,3.57
2023-09-16T04:32:01.135Z,3.93
2023-09-16T04:32:35.115Z,3.80
2023-09-16T04:33:10.766Z,3.77
2023-09-16T04:33:44.352Z,4.20
2023-09-16T04:34:18.970Z,4.23
2023-09-16T04:34:57.477Z,4.17
2023-09-16T04:35:30.792Z,4.13
2023-09-16T04:36:05.343Z,3.57
2023-09-16T04:36:45.475Z,3.57
2023-09-16T04:37:19.219Z,3.10
2023-09-16T04:37:56.033Z,3.53
2023-09-16T04:38:32.455Z,4.23
2023-09-16T04:39:07.358Z,3.40
2023-09-16T04:39:40.740Z,4.00
2023-09-16T04:40:14.356Z,4.07
2023-09-16T04:40:49.808Z,3.77
2023-09-16T04:41:23.819Z,3.23
2023-09-16T04:42:00.324Z,3.57
2023-09-16T04:42:33.735Z,3.73
2023-09-16T04:43:08.716Z,3.70
2023-09-16T04:43:44.697Z,3.13
2023-09-16T04:44:20.177Z,3.70
2023-09-16T04:44:53.799Z,3.50
2023-09-16T04:45:27.860Z,3.57
2023-09-16T04:46:02.086Z,3.70
2023-09-16T04:47:11.867Z,3.23
2023-09-16T04:47:45.740Z,3.40
2023-09-16T04:48:19.390Z,2.97
2023-09-16T04:48:55.746Z,3.40
2023-09-16T04:49:29.625Z,3.50
2023-09-16T04:50:03.559Z,3.53
2023-09-16T04:50:47.783Z,3.97
2023-09-16T04:51:22.159Z,3.53
2023-09-16T04:51:58.628Z,3.80
2023-09-16T04:52:32.139Z,3.13
2023-09-16T04:53:09.415Z,3.53
2023-09-16T04:53:43.166Z,3.63
2023-09-16T04:54:17.276Z,3.20
2023-09-16T04:54:54.660Z,3.07
2023-09-16T04:55:28.718Z,3.60
2023-09-16T04:56:03.730Z,3.17
2023-09-16T04:56:39.340Z,3.43
2023-09-16T04:57:15.593Z,3.50
2023-09-16T04:57:49.392Z,3.70
2023-09-16T04:58:22.770Z,3.70
2023-09-16T04:58:56.315Z,3.83
2023-09-16T04:59:33.891Z,3.80
2023-09-16T05:00:13.167Z,3.67
2023-09-16T05:00:46.578Z,3.93
2023-09-16T05:01:20.246Z,4.03
2023-09-16T05:01:57.557Z,3.53
2023-09-16T05:02:31.550Z,3.33
2023-09-16T05:03:08.009Z,3.70
2023-09-16T05:03:42.200Z,3.70
2023-09-16T05:04:16.918Z,3.37
2023-09-16T05:04:50.193Z,3.87
2023-09-16T05:05:26.438Z,3.93
2023-09-16T05:06:00.331Z,3.13
2023-09-16T05:06:37.154Z,3.60
2023-09-16T05:07:10.792Z,3.37
2023-09-16T05:07:44.535Z,3.43
2023-09-16T05:08:18.213Z,3.67
2023-09-16T05:08:58.483Z,3.63
2023-09-16T05:09:32.108Z,3.57
2023-09-16T05:10:06.060Z,3.27
2023-09-16T05:10:39.788Z,3.57
2023-09-16T05:11:13.094Z,4.17
2023-09-16T05:11:53.394Z,3.20
2023-09-16T05:12:26.780Z,3.50
2023-09-16T05:13:00.625Z,3.23
2023-09-16T05:13:36.309Z,3.97
2023-09-16T05:14:10.267Z,3.47
2023-09-16T05:14:44.019Z,3.70
2023-09-16T05:15:17.295Z,3.90
2023-09-16T05:15:52.218Z,3.80
2023-09-16T05:16:26.148Z,3.77
2023-09-16T05:17:02.413Z,3.43
2023-09-16T05:17:38.349Z,3.70
2023-09-16T05:18:12.131Z,3.43
2023-09-16T05:18:46.616Z,3.97
2023-09-16T05:19:20.569Z,3.63
2023-09-16T05:19:54.269Z,3.60
2023-09-16T05:20:28.186Z,3.93
2023-09-16T05:21:01.830Z,3.70
2023-09-16T05:21:38.097Z,3.73
2023-09-16T05:22:11.684Z,3.67
2023-09-16T05:22:49.601Z,3.60
2023-09-16T05:23:27.750Z,3.13
2023-09-16T05:24:01.304Z,3.43
2023-09-16T05:24:36.470Z,3.40
2023-09-16T05:25:10.952Z,3.70
2023-09-16T05:25:48.529Z,3.40
2023-09-16T05:26:26.989Z,3.23
2023-09-16T05:27:01.406Z,3.37
2023-09-16T05:27:35.104Z,3.57
2023-09-16T05:28:08.880Z,3.40
2023-09-16T05:28:45.969Z,3.40
2023-09-16T05:29:20.095Z,3.50
2023-09-16T05:29:56.013Z,4.20
2023-09-16T05:30:31.186Z,3.40
2023-09-16T05:31:07.062Z,3.40
2023-09-16T05:31:44.348Z,3.33
2023-09-16T05:32:17.934Z,3.37
2023-09-16T05:32:51.647Z,3.27
2023-09-16T05:33:28.896Z,3.90
2023-09-16T05:34:02.233Z,3.97
2023-09-16T05:34:36.074Z,3.73
2023-09-16T05:35:09.897Z,3.57
2023-09-16T05:35:44.573Z,3.40
2023-09-16T05:36:18.553Z,3.57
2023-09-16T05:36:51.837Z,4.33
2023-09-16T05:37:26.250Z,4.00
2023-09-16T05:38:00.332Z,3.47
2023-09-16T05:38:33.977Z,3.03
2023-09-16T05:39:07.993Z,2.93
2023-09-16T05:39:41.957Z,3.23
2023-09-16T05:40:15.635Z,3.37
2023-09-16T05:40:49.135Z,3.67
2023-09-16T05:41:27.434Z,3.13
2023-09-16T05:42:00.792Z,3.23
2023-09-16T05:42:34.492Z,3.77
2023-09-16T05:43:08.966Z,3.97
2023-09-16T05:43:44.500Z,3.73
2023-09-16T05:44:22.764Z,3.87
2023-09-16T05:44:56.563Z,3.80
2023-09-16T05:45:30.256Z,3.73
2023-09-16T05:46:03.922Z,3.67
2023-09-16T05:46:38.682Z,3.70
2023-09-16T05:47:13.614Z,3.40
2023-09-16T05:47:49.674Z,3.30
2023-09-16T05:48:25.657Z,3.47
2023-09-16T05:49:07.885Z,3.77
2023-09-16T05:49:42.680Z,3.53
2023-09-16T05:50:16.558Z,3.43
2023-09-16T05:51:01.212Z,3.37
2023-09-16T05:51:37.665Z,3.40
2023-09-16T05:52:11.447Z,2.93
2023-09-16T05:52:45.708Z,2.97
2023-09-16T05:53:19.234Z,3.57
2023-09-16T05:53:53.468Z,3.60
2023-09-16T05:54:27.925Z,3.63
2023-09-16T05:55:01.331Z,3.53
2023-09-16T05:55:39.972Z,3.13
2023-09-16T05:56:16.480Z,3.23
2023-09-16T05:56:55.550Z,3.73
2023-09-16T05:57:28.923Z,3.40
2023-09-16T05:58:02.379Z,3.33
2023-09-16T05:58:39.286Z,3.37
2023-09-16T05:59:14.121Z,3.20
2023-09-16T05:59:47.655Z,3.23
2023-09-16T06:00:23.798Z,3.07
2023-09-16T06:00:58.974Z,3.60
2023-09-16T06:01:35.272Z,3.67
2023-09-16T06:02:08.927Z,3.33
2023-09-16T06:02:42.567Z,3.30
2023-09-16T06:03:16.250Z,3.60
2023-09-16T06:03:50.302Z,3.70
2023-09-16T06:04:24.158Z,3.57
2023-09-16T06:04:57.534Z,3.77
2023-09-16T06:05:31.365Z,3.50
2023-09-16T06:06:08.197Z,3.60
2023-09-16T06:06:42.378Z,3.50
2023-09-16T06:07:16.075Z,3.33
2023-09-16T06:07:51.876Z,3.73
2023-09-16T06:08:25.368Z,3.47
2023-09-16T06:08:58.857Z,3.10
2023-09-16T06:09:32.789Z,3.67
2023-09-16T06:10:08.267Z,4.17
2023-09-16T06:10:41.664Z,3.43
2023-09-16T06:11:16.524Z,4.63
2023-09-16T06:11:49.996Z,3.73
2023-09-16T06:12:24.516Z,4.13
2023-09-16T06:12:58.138Z,3.87
2023-09-16T06:13:31.689Z,3.77
2023-09-16T06:14:07.306Z,3.90
2023-09-16T06:14:42.376Z,3.53
2023-09-16T06:15:16.168Z,3.47
2023-09-16T06:15:50.078Z,4.10
2023-09-16T06:16:24.010Z,3.90
2023-09-16T06:16:58.604Z,3.90
2023-09-16T06:17:31.927Z,3.60
2023-09-16T06:18:07.923Z,3.83
2023-09-16T06:18:41.349Z,4.73
2023-09-16T06:19:14.910Z,4.43
2023-09-16T06:19:52.875Z,4.17
2023-09-16T06:20:27.242Z,3.90
2023-09-16T06:21:00.789Z,4.40
2023-09-16T06:21:35.601Z,4.27
2023-09-16T06:22:11.238Z,3.43
2023-09-16T06:22:45.459Z,4.07
2023-09-16T06:23:20.505Z,3.83
2023-09-16T06:23:56.881Z,3.63
2023-09-16T06:24:30.502Z,4.43
2023-09-16T06:25:05.083Z,3.90
2023-09-16T06:25:39.284Z,3.20
2023-09-16T06:26:13.002Z,3.57
2023-09-16T06:26:48.942Z,3.50
2023-09-16T06:27:23.398Z,2.90
2023-09-16T06:28:00.535Z,3.17
2023-09-16T06:28:34.571Z,3.60
2023-09-16T06:29:08.389Z,3.90
2023-09-16T06:29:43.286Z,3.70
2023-09-16T06:30:17.031Z,5.57
2023-09-16T06:30:50.663Z,5.20
2023-09-16T06:31:28.366Z,4.57
2023-09-16T06:32:03.488Z,4.30
2023-09-16T06:32:37.007Z,4.10
2023-09-16T06:33:11.518Z,3.40
2023-09-16T06:33:48.947Z,3.57
2023-09-16T06:34:25.395Z,4.00
2023-09-16T06:34:59.120Z,3.90
2023-09-16T06:35:32.478Z,4.20
2023-09-16T06:36:06.470Z,4.23
2023-09-16T06:36:42.793Z,3.83
2023-09-16T06:37:16.399Z,3.63
2023-09-16T06:37:51.162Z,3.40
2023-09-16T06:38:25.060Z,3.57
2023-09-16T06:39:00.906Z,3.43
2023-09-16T06:39:36.426Z,3.67
2023-09-16T06:40:12.619Z,3.57
2023-09-16T06:40:46.264Z,3.37
2023-09-16T06:41:19.838Z,4.03
2023-09-16T06:41:57.008Z,3.80
2023-09-16T06:42:33.512Z,3.40
2023-09-16T06:43:09.593Z,4.10
2023-09-16T06:43:47.077Z,4.70
2023-09-16T06:44:25.168Z,5.27
2023-09-16T06:44:58.771Z,5.07
2023-09-16T06:45:34.098Z,4.23
2023-09-16T06:46:07.519Z,3.57
2023-09-16T06:46:42.129Z,3.50
2023-09-16T06:47:15.559Z,4.13
2023-09-16T06:47:49.845Z,3.80
2023-09-16T06:48:23.094Z,3.47
2023-09-16T06:48:59.652Z,3.70
2023-09-16T06:49:33.135Z,3.77
2023-09-16T06:50:09.866Z,2.97
2023-09-16T06:50:44.942Z,3.67
2023-09-16T06:51:18.532Z,3.77
2023-09-16T06:51:52.056Z,3.90
2023-09-16T06:52:27.799Z,3.90
2023-09-16T06:53:01.577Z,3.97
2023-09-16T06:53:37.140Z,3.47
2023-09-16T06:54:10.412Z,3.47
2023-09-16T06:54:43.806Z,3.67
2023-09-16T06:55:17.408Z,3.57
2023-09-16T06:55:51.072Z,3.50
2023-09-16T06:56:24.264Z,3.67
2023-09-16T06:57:00.547Z,3.57
2023-09-16T06:59:21.384Z,3.90
2023-09-16T06:59:56.211Z,3.57
2023-09-16T07:00:32.434Z,3.47
2023-09-16T07:01:13.853Z,3.50
2023-09-16T07:01:47.535Z,3.27
2023-09-16T07:02:23.607Z,3.93
2023-09-16T07:03:00.923Z,3.73
2023-09-16T07:03:37.277Z,3.70
2023-09-16T07:04:10.967Z,4.07
2023-09-16T07:04:46.737Z,3.70
2023-09-16T07:05:20.506Z,3.70
2023-09-16T07:05:53.843Z,3.43
2023-09-16T07:06:27.478Z,3.73
2023-09-16T07:07:00.925Z,3.60
2023-09-16T07:07:38.762Z,3.43
2023-09-16T07:08:12.375Z,3.23
2023-09-16T07:08:46.031Z,3.13
2023-09-16T07:09:19.716Z,3.03
2023-09-16T07:09:57.254Z,3.63
2023-09-16T07:10:30.855Z,3.90
2023-09-16T07:11:04.471Z,3.43
2023-09-16T07:11:38.068Z,3.40
2023-09-16T07:12:11.589Z,3.83
2023-09-16T07:12:45.207Z,3.87
2023-09-16T07:13:18.831Z,3.27
2023-09-16T07:13:53.587Z,3.83
2023-09-16T07:14:27.267Z,3.63
2023-09-16T07:15:06.557Z,3.60
2023-09-16T07:15:40.012Z,3.23
2023-09-16T07:16:14.470Z,3.87
2023-09-16T07:16:47.954Z,3.23
2023-09-16T07:17:22.091Z,3.53
2023-09-16T07:17:55.471Z,3.63
2023-09-16T07:18:29.220Z,3.57
2023-09-16T07:19:02.900Z,3.63
2023-09-16T07:19:36.650Z,3.53
2023-09-16T07:20:11.684Z,3.20
2023-09-16T07:20:45.413Z,3.53
2023-09-16T07:21:19.002Z,3.57
2023-09-16T07:21:52.322Z,3.03
2023-09-16T07:22:29.010Z,3.47
2023-09-16T07:23:02.685Z,3.40
2023-09-16T07:23:39.081Z,3.20
2023-09-16T07:24:14.599Z,3.40
2023-09-16T07:24:48.224Z,3.13
2023-09-16T07:25:23.310Z,2.87
2023-09-16T07:26:00.374Z,3.10
2023-09-16T07:26:34.080Z,3.63
2023-09-16T07:27:07.747Z,3.83
2023-09-16T07:27:41.340Z,3.10
2023-09-16T07:28:14.935Z,3.37
2023-09-16T07:28:48.845Z,3.90
2023-09-16T07:29:24.000Z,3.67
2023-09-16T07:29:58.354Z,4.07
2023-09-16T07:30:35.886Z,4.40
2023-09-16T07:31:09.314Z,4.60
2023-09-16T07:31:42.972Z,3.83
2023-09-16T07:32:16.472Z,3.67
2023-09-16T07:32:51.624Z,4.10
2023-09-16T07:33:26.012Z,4.83
2023-09-16T07:34:00.445Z,4.87
2023-09-16T07:34:34.091Z,4.73
2023-09-16T07:35:08.164Z,4.57
2023-09-16T07:35:41.760Z,3.73
2023-09-16T07:36:16.831Z,3.70
2023-09-16T07:36:50.800Z,3.60
2023-09-16T07:37:24.449Z,3.00
2023-09-16T07:37:58.847Z,3.23
2023-09-16T07:38:32.455Z,3.77
2023-09-16T07:39:06.125Z,3.40
2023-09-16T07:39:39.876Z,3.43
2023-09-16T07:40:13.813Z,3.23
2023-09-16T07:40:47.312Z,3.13
2023-09-16T07:41:21.023Z,3.37
2023-09-16T07:41:58.258Z,3.43
2023-09-16T07:42:33.457Z,3.17
2023-09-16T07:43:12.068Z,3.20
2023-09-16T07:43:45.796Z,3.23
2023-09-16T07:44:19.538Z,3.63
2023-09-16T07:44:53.805Z,3.20
2023-09-16T07:45:27.679Z,3.63
2023-09-16T07:46:01.382Z,3.50
2023-09-16T07:46:36.007Z,3.50
2023-09-16T07:47:09.751Z,3.13
2023-09-16T07:47:43.530Z,3.70
2023-09-16T07:48:18.586Z,3.63
2023-09-16T07:48:52.512Z,3.47
2023-09-16T07:49:26.650Z,2.97
2023-09-16T07:50:00.853Z,3.43
2023-09-16T07:50:34.661Z,3.90
2023-09-16T07:51:08.033Z,4.37
2023-09-16T07:51:41.809Z,3.50
2023-09-16T07:52:18.438Z,3.10